Terminal Aerodrome Forecast
Issued by NWS Sioux Falls, SD

Home | Current Version | Previous Version | Text Only | Print | Product List | Glossary On
Versions: 1 2 3 4 5 6 7 8 9 10 11 12
000
FTUS43 KFSD 062353
TAFHON
TAF
KHON 062353Z 0700/0724 17013G18KT P6SM SCT025 OVC060
     FM070300 15013KT P6SM -SHRA SCT025 OVC050
      TEMPO 0703/0705 4SM TSRA OVC025CB
     FM070800 23005KT P6SM OVC015
     FM071400 28008KT P6SM OVC025
     FM071800 29015G22KT P6SM BKN040=

USA.gov is the U.S. government's official web portal to all federal, state and local government web resources and services.